sensor_id;sensor_type;location;lat;lon;timestamp;pressure;altitude;pressure_sealevel;temperature;humidity
62103;BME280;48077;48.104;11.702;2022-07-05T00:01:12;95736.59;;;16.36;100.00
62103;BME280;48077;48.104;11.702;2022-07-05T00:03:36;95768.16;;;16.56;100.00
62103;BME280;48077;48.104;11.702;2022-07-05T00:05:59;95716.91;;;16.25;100.00
62103;BME280;48077;48.104;11.702;2022-07-05T00:08:22;95679.94;;;16.05;100.00
62103;BME280;48077;48.104;11.702;2022-07-05T00:10:46;95695.28;;;16.10;100.00
62103;BME280;48077;48.104;11.702;2022-07-05T00:13:11;95669.13;;;15.95;100.00
62103;BME280;48077;48.104;11.702;2022-07-05T00:15:34;95685.31;;;16.05;100.00
62103;BME280;48077;48.104;11.702;2022-07-05T00:17:58;95755.72;;;16.50;100.00
62103;BME280;48077;48.104;11.702;2022-07-05T00:20:22;95672.13;;;15.98;100.00
62103;BME280;48077;48.104;11.702;2022-07-05T00:22:45;95709.59;;;16.21;100.00
62103;BME280;48077;48.104;11.702;2022-07-05T00:25:09;95677.00;;;16.07;100.00
62103;BME280;48077;48.104;11.702;2022-07-05T00:27:33;95779.78;;;16.72;100.00
62103;BME280;48077;48.104;11.702;2022-07-05T00:29:56;95726.13;;;16.39;100.00
62103;BME280;48077;48.104;11.702;2022-07-05T00:32:20;95674.56;;;16.05;100.00
62103;BME280;48077;48.104;11.702;2022-07-05T00:34:43;95740.41;;;16.50;100.00
62103;BME280;48077;48.104;11.702;2022-07-05T00:37:07;95677.25;;;16.05;100.00
62103;BME280;48077;48.104;11.702;2022-07-05T00:39:30;95749.59;;;16.54;100.00
62103;BME280;48077;48.104;11.702;2022-07-05T00:41:54;95713.66;;;16.23;100.00
62103;BME280;48077;48.104;11.702;2022-07-05T00:44:31;95680.47;;;16.02;100.00
62103;BME280;48077;48.104;11.702;2022-07-05T00:46:55;95656.44;;;15.85;100.00
62103;BME280;48077;48.104;11.702;2022-07-05T00:49:18;95702.91;;;16.23;100.00
62103;BME280;48077;48.104;11.702;2022-07-05T00:51:42;95655.13;;;15.93;100.00
62103;BME280;48077;48.104;11.702;2022-07-05T00:54:06;95654.84;;;15.89;100.00
62103;BME280;48077;48.104;11.702;2022-07-05T00:56:30;95736.28;;;16.27;100.00
62103;BME280;48077;48.104;11.702;2022-07-05T00:58:54;95729.53;;;16.25;100.00
62103;BME280;48077;48.104;11.702;2022-07-05T01:01:17;95734.91;;;16.25;100.00
62103;BME280;48077;48.104;11.702;2022-07-05T01:03:42;95706.28;;;16.03;100.00
62103;BME280;48077;48.104;11.702;2022-07-05T01:06:06;95700.34;;;15.96;100.00
62103;BME280;48077;48.104;11.702;2022-07-05T01:08:33;95720.31;;;16.10;100.00
62103;BME280;48077;48.104;11.702;2022-07-05T01:10:56;95740.28;;;16.25;100.00
62103;BME280;48077;48.104;11.702;2022-07-05T01:13:20;95726.53;;;16.16;100.00
62103;BME280;48077;48.104;11.702;2022-07-05T01:15:44;95693.59;;;15.93;100.00
62103;BME280;48077;48.104;11.702;2022-07-05T01:18:09;95714.06;;;15.99;100.00
62103;BME280;48077;48.104;11.702;2022-07-05T01:20:33;95724.63;;;16.06;100.00
62103;BME280;48077;48.104;11.702;2022-07-05T01:22:57;95727.63;;;16.15;100.00
62103;BME280;48077;48.104;11.702;2022-07-05T01:25:26;95700.13;;;16.08;100.00
62103;BME280;48077;48.104;11.702;2022-07-05T01:27:51;95742.22;;;16.34;100.00
62103;BME280;48077;48.104;11.702;2022-07-05T01:30:15;95673.97;;;15.88;100.00
62103;BME280;48077;48.104;11.702;2022-07-05T01:32:39;95650.97;;;15.70;100.00
62103;BME280;48077;48.104;11.702;2022-07-05T01:35:04;95692.56;;;15.99;100.00
62103;BME280;48077;48.104;11.702;2022-07-05T01:37:29;95709.00;;;16.08;100.00
62103;BME280;48077;48.104;11.702;2022-07-05T01:39:52;95701.94;;;15.92;100.00
62103;BME280;48077;48.104;11.702;2022-07-05T01:42:16;95707.34;;;15.97;100.00
62103;BME280;48077;48.104;11.702;2022-07-05T01:44:39;95673.63;;;15.79;100.00
62103;BME280;48077;48.104;11.702;2022-07-05T01:47:05;95673.06;;;15.77;100.00
62103;BME280;48077;48.104;11.702;2022-07-05T01:49:31;95751.34;;;16.28;100.00
62103;BME280;48077;48.104;11.702;2022-07-05T01:52:04;95673.63;;;15.79;100.00
62103;BME280;48077;48.104;11.702;2022-07-05T01:54:30;95707.03;;;15.93;100.00
62103;BME280;48077;48.104;11.702;2022-07-05T01:56:53;95691.16;;;15.87;100.00
62103;BME280;48077;48.104;11.702;2022-07-05T01:59:17;95725.69;;;16.10;100.00
62103;BME280;48077;48.104;11.702;2022-07-05T02:01:41;95665.78;;;15.72;100.00
62103;BME280;48077;48.104;11.702;2022-07-05T02:04:06;95660.91;;;15.69;100.00
62103;BME280;48077;48.104;11.702;2022-07-05T02:06:31;95646.09;;;15.62;100.00
62103;BME280;48077;48.104;11.702;2022-07-05T02:08:55;95723.53;;;16.12;100.00
62103;BME280;48077;48.104;11.702;2022-07-05T02:11:19;95737.28;;;16.16;100.00
62103;BME280;48077;48.104;11.702;2022-07-05T02:13:42;95698.66;;;15.85;100.00
62103;BME280;48077;48.104;11.702;2022-07-05T02:16:06;95659.50;;;15.56;100.00
62103;BME280;48077;48.104;11.702;2022-07-05T02:18:29;95734.78;;;15.99;100.00
62103;BME280;48077;48.104;11.702;2022-07-05T02:20:53;95762.88;;;16.18;100.00
62103;BME280;48077;48.104;11.702;2022-07-05T02:23:16;95720.72;;;15.87;100.00
62103;BME280;48077;48.104;11.702;2022-07-05T02:25:40;95759.88;;;16.10;100.00
62103;BME280;48077;48.104;11.702;2022-07-05T02:28:03;95711.31;;;15.84;100.00
62103;BME280;48077;48.104;11.702;2022-07-05T02:30:27;95767.44;;;16.13;100.00
62103;BME280;48077;48.104;11.702;2022-07-05T02:32:51;95755.28;;;16.05;100.00
62103;BME280;48077;48.104;11.702;2022-07-05T02:35:14;95774.41;;;16.14;100.00
62103;BME280;48077;48.104;11.702;2022-07-05T02:37:38;95776.31;;;16.13;100.00
62103;BME280;48077;48.104;11.702;2022-07-05T02:40:11;95770.91;;;16.13;100.00
62103;BME280;48077;48.104;11.702;2022-07-05T02:42:35;95740.41;;;15.92;100.00
62103;BME280;48077;48.104;11.702;2022-07-05T02:44:59;95749.88;;;16.00;100.00
62103;BME280;48077;48.104;11.702;2022-07-05T02:47:22;95772.25;;;16.11;100.00
62103;BME280;48077;48.104;11.702;2022-07-05T02:49:46;95734.22;;;15.92;100.00
62103;BME280;48077;48.104;11.702;2022-07-05T02:52:09;95754.72;;;15.98;100.00
62103;BME280;48077;48.104;11.702;2022-07-05T02:54:32;95749.03;;;15.94;100.00
62103;BME280;48077;48.104;11.702;2022-07-05T02:56:56;95738.72;;;15.81;100.00
62103;BME280;48077;48.104;11.702;2022-07-05T02:59:20;95778.63;;;15.99;100.00
62103;BME280;48077;48.104;11.702;2022-07-05T03:01:43;95772.69;;;15.92;100.00
62103;BME280;48077;48.104;11.702;2022-07-05T03:04:06;95755.69;;;15.82;100.00
62103;BME280;48077;48.104;11.702;2022-07-05T03:06:30;95755.69;;;15.82;100.00
62103;BME280;48077;48.104;11.702;2022-07-05T03:08:53;95728.38;;;15.63;100.00
62103;BME280;48077;48.104;11.702;2022-07-05T03:11:17;95737.97;;;15.53;100.00
62103;BME280;48077;48.104;11.702;2022-07-05T03:13:40;95781.47;;;15.77;100.00
62103;BME280;48077;48.104;11.702;2022-07-05T03:16:04;95761.94;;;15.60;100.00
62103;BME280;48077;48.104;11.702;2022-07-05T03:18:27;95787.84;;;15.71;100.00
62103;BME280;48077;48.104;11.702;2022-07-05T03:20:51;95746.25;;;15.47;100.00
62103;BME280;48077;48.104;11.702;2022-07-05T03:23:14;95753.22;;;15.48;100.00
62103;BME280;48077;48.104;11.702;2022-07-05T03:25:37;95764.13;;;15.63;100.00
62103;BME280;48077;48.104;11.702;2022-07-05T03:28:01;95789.78;;;15.76;100.00
62103;BME280;48077;48.104;11.702;2022-07-05T03:30:24;95739.78;;;15.48;100.00
62103;BME280;48077;48.104;11.702;2022-07-05T03:32:48;95765.16;;;15.57;100.00
62103;BME280;48077;48.104;11.702;2022-07-05T03:35:11;95756.47;;;15.50;100.00
62103;BME280;48077;48.104;11.702;2022-07-05T03:37:35;95761.28;;;15.48;100.00
62103;BME280;48077;48.104;11.702;2022-07-05T03:39:58;95774.53;;;15.54;100.00
62103;BME280;48077;48.104;11.702;2022-07-05T03:42:22;95794.50;;;15.64;100.00
62103;BME280;48077;48.104;11.702;2022-07-05T03:44:45;95728.53;;;15.18;100.00
62103;BME280;48077;48.104;11.702;2022-07-05T03:47:09;95772.88;;;15.48;100.00
62103;BME280;48077;48.104;11.702;2022-07-05T03:49:32;95789.84;;;15.54;100.00
62103;BME280;48077;48.104;11.702;2022-07-05T03:51:55;95751.53;;;15.31;100.00
62103;BME280;48077;48.104;11.702;2022-07-05T03:54:19;95765.19;;;15.30;100.00
62103;BME280;48077;48.104;11.702;2022-07-05T03:56:42;95764.13;;;15.31;100.00
62103;BME280;48077;48.104;11.702;2022-07-05T03:59:06;95787.91;;;15.44;100.00
62103;BME280;48077;48.104;11.702;2022-07-05T04:01:29;95758.16;;;15.24;100.00
62103;BME280;48077;48.104;11.702;2022-07-05T04:03:52;95773.81;;;15.32;100.00
62103;BME280;48077;48.104;11.702;2022-07-05T04:06:16;95779.97;;;15.27;100.00
62103;BME280;48077;48.104;11.702;2022-07-05T04:08:39;95772.09;;;15.21;100.00
62103;BME280;48077;48.104;11.702;2022-07-05T04:11:03;95755.34;;;15.08;100.00
62103;BME280;48077;48.104;11.702;2022-07-05T04:13:27;95809.31;;;15.34;100.00
62103;BME280;48077;48.104;11.702;2022-07-05T04:15:50;95782.00;;;15.15;100.00
62103;BME280;48077;48.104;11.702;2022-07-05T04:18:14;95775.00;;;15.14;100.00
62103;BME280;48077;48.104;11.702;2022-07-05T04:20:37;95793.59;;;15.21;100.00
62103;BME280;48077;48.104;11.702;2022-07-05T04:23:00;95790.63;;;15.17;100.00
62103;BME280;48077;48.104;11.702;2022-07-05T04:25:24;95809.25;;;15.29;100.00
62103;BME280;48077;48.104;11.702;2022-07-05T04:27:54;95817.84;;;15.26;100.00
62103;BME280;48077;48.104;11.702;2022-07-05T04:30:19;95809.53;;;15.27;100.00
62103;BME280;48077;48.104;11.702;2022-07-05T04:32:43;95817.13;;;15.35;100.00
62103;BME280;48077;48.104;11.702;2022-07-05T04:35:06;95800.69;;;15.32;100.00
62103;BME280;48077;48.104;11.702;2022-07-05T04:37:30;95795.25;;;15.27;100.00
62103;BME280;48077;48.104;11.702;2022-07-05T04:39:53;95778.53;;;15.20;100.00
62103;BME280;48077;48.104;11.702;2022-07-05T04:42:17;95788.75;;;15.23;100.00
62103;BME280;48077;48.104;11.702;2022-07-05T04:44:40;95824.19;;;15.47;100.00
62103;BME280;48077;48.104;11.702;2022-07-05T04:47:03;95801.03;;;15.41;100.00
62103;BME280;48077;48.104;11.702;2022-07-05T04:49:27;95818.06;;;15.51;100.00
62103;BME280;48077;48.104;11.702;2022-07-05T04:51:50;95813.78;;;15.55;100.00
62103;BME280;48077;48.104;11.702;2022-07-05T04:54:14;95820.34;;;15.65;100.00
62103;BME280;48077;48.104;11.702;2022-07-05T04:56:37;95821.81;;;15.77;100.00
62103;BME280;48077;48.104;11.702;2022-07-05T04:59:00;95817.53;;;15.82;100.00
62103;BME280;48077;48.104;11.702;2022-07-05T05:01:26;95796.56;;;15.84;100.00
62103;BME280;48077;48.104;11.702;2022-07-05T05:03:50;95804.72;;;15.94;100.00
62103;BME280;48077;48.104;11.702;2022-07-05T05:06:13;95783.44;;;15.92;100.00
62103;BME280;48077;48.104;11.702;2022-07-05T05:08:37;95774.03;;;15.90;100.00
62103;BME280;48077;48.104;11.702;2022-07-05T05:11:00;95798.06;;;16.07;100.00
62103;BME280;48077;48.104;11.702;2022-07-05T05:13:24;95775.94;;;15.99;100.00
62103;BME280;48077;48.104;11.702;2022-07-05T05:15:48;95758.44;;;15.92;100.00
62103;BME280;48077;48.104;11.702;2022-07-05T05:18:11;95809.50;;;16.29;100.00
62103;BME280;48077;48.104;11.702;2022-07-05T05:20:35;95814.34;;;16.32;100.00
62103;BME280;48077;48.104;11.702;2022-07-05T05:23:11;95802.22;;;16.30;100.00
62103;BME280;48077;48.104;11.702;2022-07-05T05:25:36;95760.41;;;16.07;100.00
62103;BME280;48077;48.104;11.702;2022-07-05T05:28:00;95775.50;;;16.13;100.00
62103;BME280;48077;48.104;11.702;2022-07-05T05:30:23;95770.34;;;16.06;100.00
62103;BME280;48077;48.104;11.702;2022-07-05T05:32:47;95746.03;;;15.91;100.00
62103;BME280;48077;48.104;11.702;2022-07-05T05:35:11;95780.34;;;16.11;100.00
62103;BME280;48077;48.104;11.702;2022-07-05T05:37:54;95801.44;;;16.29;100.00
62103;BME280;48077;48.104;11.702;2022-07-05T05:40:18;95772.03;;;16.17;100.00
62103;BME280;48077;48.104;11.702;2022-07-05T05:42:41;95814.97;;;16.50;100.00
62103;BME280;48077;48.104;11.702;2022-07-05T05:45:05;95806.63;;;16.46;100.00
62103;BME280;48077;48.104;11.702;2022-07-05T05:47:28;95768.28;;;16.29;100.00
62103;BME280;48077;48.104;11.702;2022-07-05T05:49:52;95775.06;;;16.36;100.00
62103;BME280;48077;48.104;11.702;2022-07-05T05:52:15;95773.78;;;16.44;100.00
62103;BME280;48077;48.104;11.702;2022-07-05T05:54:38;95795.09;;;16.61;100.00
62103;BME280;48077;48.104;11.702;2022-07-05T05:57:02;95779.19;;;16.59;100.00
62103;BME280;48077;48.104;11.702;2022-07-05T05:59:25;95806.53;;;16.84;100.00
62103;BME280;48077;48.104;11.702;2022-07-05T06:01:49;95781.69;;;16.76;100.00
62103;BME280;48077;48.104;11.702;2022-07-05T06:04:12;95788.22;;;16.86;100.00
62103;BME280;48077;48.104;11.702;2022-07-05T06:06:35;95799.03;;;16.96;100.00
62103;BME280;48077;48.104;11.702;2022-07-05T06:08:59;95823.88;;;17.24;100.00
62103;BME280;48077;48.104;11.702;2022-07-05T06:11:22;95793.13;;;17.09;100.00
62103;BME280;48077;48.104;11.702;2022-07-05T06:13:45;95776.16;;;17.09;100.00
62103;BME280;48077;48.104;11.702;2022-07-05T06:16:09;95829.56;;;17.48;100.00
62103;BME280;48077;48.104;11.702;2022-07-05T06:18:32;95821.22;;;17.49;100.00
62103;BME280;48077;48.104;11.702;2022-07-05T06:20:55;95814.22;;;17.48;100.00
62103;BME280;48077;48.104;11.702;2022-07-05T06:23:19;95826.63;;;17.54;100.00
62103;BME280;48077;48.104;11.702;2022-07-05T06:25:42;95830.13;;;17.55;100.00
62103;BME280;48077;48.104;11.702;2022-07-05T06:28:07;95829.59;;;17.63;100.00
62103;BME280;48077;48.104;11.702;2022-07-05T06:30:32;95828.25;;;17.71;100.00
62103;BME280;48077;48.104;11.702;2022-07-05T06:32:56;95844.97;;;17.83;100.00
62103;BME280;48077;48.104;11.702;2022-07-05T06:35:21;95827.69;;;17.79;100.00
62103;BME280;48077;48.104;11.702;2022-07-05T06:37:50;95856.84;;;17.87;99.01
62103;BME280;48077;48.104;11.702;2022-07-05T06:40:25;95831.47;;;17.73;99.37
62103;BME280;48077;48.104;11.702;2022-07-05T06:42:52;95853.63;;;17.95;99.29
62103;BME280;48077;48.104;11.702;2022-07-05T06:45:16;95852.28;;;17.93;99.90
62103;BME280;48077;48.104;11.702;2022-07-05T06:47:40;95849.84;;;18.02;99.43
62103;BME280;48077;48.104;11.702;2022-07-05T06:50:04;95850.13;;;18.05;100.00
62103;BME280;48077;48.104;11.702;2022-07-05T06:52:28;95851.44;;;18.18;100.00
62103;BME280;48077;48.104;11.702;2022-07-05T06:54:52;95847.69;;;18.19;99.83
62103;BME280;48077;48.104;11.702;2022-07-05T06:57:22;95849.00;;;18.22;97.77
62103;BME280;48077;48.104;11.702;2022-07-05T06:59:45;95855.75;;;18.34;98.23
62103;BME280;48077;48.104;11.702;2022-07-05T07:02:09;95859.75;;;18.47;97.56
62103;BME280;48077;48.104;11.702;2022-07-05T07:04:32;95854.34;;;18.47;96.47
62103;BME280;48077;48.104;11.702;2022-07-05T07:06:56;95846.81;;;18.44;97.73
62103;BME280;48077;48.104;11.702;2022-07-05T07:09:19;95841.13;;;18.46;97.65
62103;BME280;48077;48.104;11.702;2022-07-05T07:11:44;95829.78;;;18.49;95.94
62103;BME280;48077;48.104;11.702;2022-07-05T07:14:08;95852.13;;;18.80;95.36
62103;BME280;48077;48.104;11.702;2022-07-05T07:16:32;95843.94;;;18.95;93.54
62103;BME280;48077;48.104;11.702;2022-07-05T07:18:56;95859.81;;;19.17;90.74
62103;BME280;48077;48.104;11.702;2022-07-05T07:21:19;95849.25;;;19.21;90.43
62103;BME280;48077;48.104;11.702;2022-07-05T07:23:43;95860.78;;;19.37;88.60
62103;BME280;48077;48.104;11.702;2022-07-05T07:26:06;95817.94;;;19.15;87.77
62103;BME280;48077;48.104;11.702;2022-07-05T07:28:29;95876.34;;;19.55;87.47
62103;BME280;48077;48.104;11.702;2022-07-05T07:30:53;95848.09;;;19.32;87.72
62103;BME280;48077;48.104;11.702;2022-07-05T07:33:16;95871.53;;;19.47;88.55
62103;BME280;48077;48.104;11.702;2022-07-05T07:35:39;95859.19;;;19.36;88.28
62103;BME280;48077;48.104;11.702;2022-07-05T07:38:03;95834.38;;;19.18;88.58
62103;BME280;48077;48.104;11.702;2022-07-05T07:40:26;95851.44;;;19.14;88.59
62103;BME280;48077;48.104;11.702;2022-07-05T07:42:50;95864.97;;;19.14;88.85
62103;BME280;48077;48.104;11.702;2022-07-05T07:45:13;95865.50;;;19.16;89.40
62103;BME280;48077;48.104;11.702;2022-07-05T07:47:37;95853.31;;;19.18;90.18
62103;BME280;48077;48.104;11.702;2022-07-05T07:50:01;95851.13;;;19.26;86.52
62103;BME280;48077;48.104;11.702;2022-07-05T07:52:25;95859.97;;;19.36;82.59
62103;BME280;48077;48.104;11.702;2022-07-05T07:54:48;95851.06;;;19.31;84.96
62103;BME280;48077;48.104;11.702;2022-07-05T07:57:11;95852.97;;;19.35;85.54
62103;BME280;48077;48.104;11.702;2022-07-05T07:59:35;95860.75;;;19.42;86.05
62103;BME280;48077;48.104;11.702;2022-07-05T08:01:58;95875.88;;;19.48;87.49
62103;BME280;48077;48.104;11.702;2022-07-05T08:04:22;95893.91;;;19.63;86.60
62103;BME280;48077;48.104;11.702;2022-07-05T08:06:45;95879.31;;;19.59;86.58
62103;BME280;48077;48.104;11.702;2022-07-05T08:09:09;95865.06;;;19.48;85.37
62103;BME280;48077;48.104;11.702;2022-07-05T08:11:32;95863.88;;;19.59;84.79
62103;BME280;48077;48.104;11.702;2022-07-05T08:13:55;95860.03;;;19.76;83.62
62103;BME280;48077;48.104;11.702;2022-07-05T08:16:19;95867.72;;;19.93;83.67
62103;BME280;48077;48.104;11.702;2022-07-05T08:18:42;95868.78;;;19.97;82.00
62103;BME280;48077;48.104;11.702;2022-07-05T08:21:25;95865.19;;;20.07;80.10
62103;BME280;48077;48.104;11.702;2022-07-05T08:23:54;95873.06;;;20.03;74.94
62103;BME280;48077;48.104;11.702;2022-07-05T08:26:18;95881.88;;;20.19;73.18
62103;BME280;48077;48.104;11.702;2022-07-05T08:28:41;95864.50;;;20.25;72.76
62103;BME280;48077;48.104;11.702;2022-07-05T08:31:04;95874.94;;;20.37;69.36
62103;BME280;48077;48.104;11.702;2022-07-05T08:33:28;95872.13;;;20.47;67.19
62103;BME280;48077;48.104;11.702;2022-07-05T08:35:51;95882.53;;;20.64;68.87
62103;BME280;48077;48.104;11.702;2022-07-05T08:38:15;95873.63;;;20.64;66.50
62103;BME280;48077;48.104;11.702;2022-07-05T08:40:39;95871.94;;;20.68;66.65
62103;BME280;48077;48.104;11.702;2022-07-05T08:43:06;95893.97;;;20.85;62.78
62103;BME280;48077;48.104;11.702;2022-07-05T08:45:31;95889.41;;;20.80;60.13
62103;BME280;48077;48.104;11.702;2022-07-05T08:47:55;95874.19;;;20.85;59.96
62103;BME280;48077;48.104;11.702;2022-07-05T08:50:21;95871.88;;;20.97;63.71
62103;BME280;48077;48.104;11.702;2022-07-05T08:52:45;95886.63;;;21.10;64.77
62103;BME280;48077;48.104;11.702;2022-07-05T08:55:10;95882.59;;;21.07;64.03
62103;BME280;48077;48.104;11.702;2022-07-05T08:57:34;95873.50;;;20.98;57.09
62103;BME280;48077;48.104;11.702;2022-07-05T08:59:57;95881.28;;;21.05;57.09
62103;BME280;48077;48.104;11.702;2022-07-05T09:02:20;95880.41;;;21.09;56.21
62103;BME280;48077;48.104;11.702;2022-07-05T09:04:45;95890.63;;;21.17;61.00
62103;BME280;48077;48.104;11.702;2022-07-05T09:07:09;95877.97;;;21.08;56.79
62103;BME280;48077;48.104;11.702;2022-07-05T09:09:38;95872.66;;;21.21;54.35
62103;BME280;48077;48.104;11.702;2022-07-05T09:12:06;95886.44;;;21.49;55.90
62103;BME280;48077;48.104;11.702;2022-07-05T09:14:30;95877.19;;;21.50;51.34
62103;BME280;48077;48.104;11.702;2022-07-05T09:16:53;95873.97;;;21.67;52.89
62103;BME280;48077;48.104;11.702;2022-07-05T09:19:16;95868.53;;;21.86;53.01
62103;BME280;48077;48.104;11.702;2022-07-05T09:21:40;95894.31;;;22.21;51.32
62103;BME280;48077;48.104;11.702;2022-07-05T09:24:06;95877.75;;;22.23;54.39
62103;BME280;48077;48.104;11.702;2022-07-05T09:26:38;95889.75;;;22.50;53.23
62103;BME280;48077;48.104;11.702;2022-07-05T09:29:05;95889.56;;;22.60;51.08
62103;BME280;48077;48.104;11.702;2022-07-05T09:31:31;95873.22;;;22.32;48.25
62103;BME280;48077;48.104;11.702;2022-07-05T09:34:03;95877.38;;;22.43;49.18
62103;BME280;48077;48.104;11.702;2022-07-05T09:36:28;95875.56;;;22.39;46.10
62103;BME280;48077;48.104;11.702;2022-07-05T09:38:52;95903.16;;;22.60;49.83
62103;BME280;48077;48.104;11.702;2022-07-05T09:41:15;95883.19;;;22.37;49.40
62103;BME280;48077;48.104;11.702;2022-07-05T09:43:38;95871.56;;;22.17;49.89
62103;BME280;48077;48.104;11.702;2022-07-05T09:46:03;95895.50;;;22.15;48.40
62103;BME280;48077;48.104;11.702;2022-07-05T09:48:29;95892.66;;;22.07;51.29
62103;BME280;48077;48.104;11.702;2022-07-05T09:51:04;95882.59;;;22.07;49.00
62103;BME280;48077;48.104;11.702;2022-07-05T09:53:44;95881.44;;;21.94;50.99
62103;BME280;48077;48.104;11.702;2022-07-05T09:56:07;95885.28;;;22.07;48.60
62103;BME280;48077;48.104;11.702;2022-07-05T09:58:30;95884.06;;;21.99;48.67
62103;BME280;48077;48.104;11.702;2022-07-05T10:00:55;95899.00;;;22.35;49.46
62103;BME280;48077;48.104;11.702;2022-07-05T10:03:19;95856.28;;;22.21;44.33
62103;BME280;48077;48.104;11.702;2022-07-05T10:05:42;95861.88;;;22.44;45.71
62103;BME280;48077;48.104;11.702;2022-07-05T10:08:06;95884.16;;;22.60;46.17
62103;BME280;48077;48.104;11.702;2022-07-05T10:10:31;95860.78;;;22.45;47.24
62103;BME280;48077;48.104;11.702;2022-07-05T10:12:59;95889.78;;;22.63;49.20
62103;BME280;48077;48.104;11.702;2022-07-05T10:15:26;95884.88;;;22.66;50.15
62103;BME280;48077;48.104;11.702;2022-07-05T10:17:53;95874.50;;;22.68;46.57
62103;BME280;48077;48.104;11.702;2022-07-05T10:20:25;95854.16;;;22.93;46.29
62103;BME280;48077;48.104;11.702;2022-07-05T10:22:48;95890.81;;;23.51;45.59
62103;BME280;48077;48.104;11.702;2022-07-05T10:25:13;95847.91;;;23.20;44.93
62103;BME280;48077;48.104;11.702;2022-07-05T10:27:37;95898.19;;;23.50;45.17
62103;BME280;48077;48.104;11.702;2022-07-05T10:30:01;95884.16;;;23.43;44.42
62103;BME280;48077;48.104;11.702;2022-07-05T10:32:25;95854.16;;;23.34;46.94
62103;BME280;48077;48.104;11.702;2022-07-05T10:34:51;95866.75;;;23.67;46.64
62103;BME280;48077;48.104;11.702;2022-07-05T10:37:15;95890.19;;;23.54;42.68
62103;BME280;48077;48.104;11.702;2022-07-05T10:39:38;95879.44;;;23.35;46.62
62103;BME280;48077;48.104;11.702;2022-07-05T10:42:02;95878.75;;;23.29;47.42
62103;BME280;48077;48.104;11.702;2022-07-05T10:44:33;95878.97;;;23.19;48.17
62103;BME280;48077;48.104;11.702;2022-07-05T10:47:09;95903.66;;;23.09;47.93
62103;BME280;48077;48.104;11.702;2022-07-05T10:49:37;95885.88;;;22.70;46.12
62103;BME280;48077;48.104;11.702;2022-07-05T10:52:01;95898.16;;;22.67;47.76
62103;BME280;48077;48.104;11.702;2022-07-05T10:54:24;95874.03;;;22.33;46.07
62103;BME280;48077;48.104;11.702;2022-07-05T10:57:22;95896.03;;;22.50;48.31
62103;BME280;48077;48.104;11.702;2022-07-05T11:00:07;95893.31;;;22.50;46.77
62103;BME280;48077;48.104;11.702;2022-07-05T11:02:31;95869.28;;;22.71;45.37
62103;BME280;48077;48.104;11.702;2022-07-05T11:04:55;95882.44;;;23.47;44.73
62103;BME280;48077;48.104;11.702;2022-07-05T11:07:58;95887.63;;;24.08;45.44
62103;BME280;48077;48.104;11.702;2022-07-05T11:10:21;95865.03;;;23.84;45.50
62103;BME280;48077;48.104;11.702;2022-07-05T11:12:45;95883.78;;;23.86;44.15
62103;BME280;48077;48.104;11.702;2022-07-05T11:15:08;95887.38;;;23.59;42.93
62103;BME280;48077;48.104;11.702;2022-07-05T11:17:34;95886.16;;;23.65;45.39
62103;BME280;48077;48.104;11.702;2022-07-05T11:22:26;95877.81;;;24.29;38.66
62103;BME280;48077;48.104;11.702;2022-07-05T11:24:49;95872.50;;;23.79;39.08
62103;BME280;48077;48.104;11.702;2022-07-05T11:27:13;95867.09;;;23.51;41.01
62103;BME280;48077;48.104;11.702;2022-07-05T11:32:14;95855.97;;;23.75;39.63
62103;BME280;48077;48.104;11.702;2022-07-05T11:34:38;95859.13;;;24.14;37.37
62103;BME280;48077;48.104;11.702;2022-07-05T11:39:38;95837.19;;;24.73;37.99
62103;BME280;48077;48.104;11.702;2022-07-05T11:42:01;95848.97;;;24.91;35.77
62103;BME280;48077;48.104;11.702;2022-07-05T11:44:24;95871.38;;;25.19;39.50
62103;BME280;48077;48.104;11.702;2022-07-05T11:46:49;95859.34;;;24.17;40.57
62103;BME280;48077;48.104;11.702;2022-07-05T11:49:18;95857.72;;;23.57;43.84
62103;BME280;48077;48.104;11.702;2022-07-05T11:51:42;95840.47;;;23.62;40.62
62103;BME280;48077;48.104;11.702;2022-07-05T11:54:09;95851.00;;;24.22;39.01
62103;BME280;48077;48.104;11.702;2022-07-05T11:56:32;95860.41;;;24.61;38.68
62103;BME280;48077;48.104;11.702;2022-07-05T11:58:55;95854.66;;;25.12;38.20
62103;BME280;48077;48.104;11.702;2022-07-05T12:01:19;95849.97;;;25.52;34.86
62103;BME280;48077;48.104;11.702;2022-07-05T12:03:53;95861.22;;;25.85;32.70
62103;BME280;48077;48.104;11.702;2022-07-05T12:06:16;95849.31;;;26.08;33.44
62103;BME280;48077;48.104;11.702;2022-07-05T12:08:40;95838.97;;;26.31;32.66
62103;BME280;48077;48.104;11.702;2022-07-05T12:11:03;95842.69;;;26.26;33.82
62103;BME280;48077;48.104;11.702;2022-07-05T12:13:50;95863.13;;;25.85;34.36
62103;BME280;48077;48.104;11.702;2022-07-05T12:16:14;95863.63;;;25.70;37.84
62103;BME280;48077;48.104;11.702;2022-07-05T12:18:54;95853.00;;;25.68;35.58
62103;BME280;48077;48.104;11.702;2022-07-05T12:21:18;95847.38;;;25.56;36.99
62103;BME280;48077;48.104;11.702;2022-07-05T12:23:45;95844.19;;;25.80;35.63
62103;BME280;48077;48.104;11.702;2022-07-05T12:26:09;95844.16;;;25.45;34.40
62103;BME280;48077;48.104;11.702;2022-07-05T12:28:33;95849.25;;;25.29;36.72
62103;BME280;48077;48.104;11.702;2022-07-05T12:30:57;95836.41;;;24.81;34.94
62103;BME280;48077;48.104;11.702;2022-07-05T12:33:21;95848.91;;;24.73;38.19
62103;BME280;48077;48.104;11.702;2022-07-05T12:35:45;95818.59;;;25.41;37.30
62103;BME280;48077;48.104;11.702;2022-07-05T12:38:12;95840.63;;;26.23;35.41
62103;BME280;48077;48.104;11.702;2022-07-05T12:40:38;95847.63;;;26.59;32.53